createdAt,value
2022-07-31T00:00:26.738Z,100963.00
2022-07-31T00:02:54.806Z,100956.56
2022-07-31T00:05:22.882Z,100956.78
2022-07-31T00:07:50.645Z,100959.22
2022-07-31T00:10:18.651Z,100960.88
2022-07-31T00:12:47.891Z,100955.69
2022-07-31T00:15:16.295Z,100943.59
2022-07-31T00:17:45.096Z,100943.84
2022-07-31T00:20:14.766Z,100928.47
2022-07-31T00:22:43.130Z,100953.97
2022-07-31T00:25:12.504Z,100955.00
2022-07-31T00:27:40.548Z,100952.50
2022-07-31T00:30:12.903Z,100937.31
2022-07-31T00:32:40.899Z,100933.59
2022-07-31T00:35:09.779Z,100949.19
2022-07-31T00:37:40.436Z,100916.38
2022-07-31T00:40:13.209Z,100947.09
2022-07-31T00:42:41.161Z,100940.88
2022-07-31T00:45:13.758Z,100912.25
2022-07-31T00:47:42.169Z,100924.31
2022-07-31T00:50:11.215Z,100933.44
2022-07-31T00:52:39.327Z,100912.72
2022-07-31T00:55:08.371Z,100908.94
2022-07-31T00:57:36.836Z,100890.03
2022-07-31T01:00:06.760Z,100898.09
2022-07-31T01:02:38.127Z,100916.38
2022-07-31T01:05:14.626Z,100917.22
2022-07-31T01:07:42.591Z,100915.78
2022-07-31T01:10:15.150Z,100915.78
2022-07-31T01:12:53.828Z,100913.66
2022-07-31T01:15:24.149Z,100903.03
2022-07-31T01:17:55.213Z,100919.25
2022-07-31T01:20:23.719Z,100920.47
2022-07-31T01:23:08.415Z,100914.25
2022-07-31T01:25:56.137Z,100908.44
2022-07-31T01:29:05.108Z,100917.56
2022-07-31T01:31:40.418Z,100923.78
2022-07-31T01:34:24.395Z,100907.53
2022-07-31T01:37:02.084Z,100904.66
2022-07-31T01:39:34.635Z,100871.47
2022-07-31T01:42:07.567Z,100902.66
2022-07-31T01:44:45.229Z,100899.72
2022-07-31T01:47:16.722Z,100904.06
2022-07-31T01:49:47.113Z,100900.94
2022-07-31T01:52:16.161Z,100900.25
2022-07-31T01:54:46.251Z,100897.75
2022-07-31T01:57:18.558Z,100900.50
2022-07-31T01:59:54.945Z,100873.91
2022-07-31T02:02:42.409Z,100897.56
2022-07-31T02:05:12.936Z,100901.28
2022-07-31T02:07:43.142Z,100903.75
2022-07-31T02:10:13.346Z,100906.44
2022-07-31T02:12:42.300Z,100901.28
2022-07-31T02:15:15.140Z,100883.19
2022-07-31T02:17:47.421Z,100897.72
2022-07-31T02:20:25.511Z,100882.34
2022-07-31T02:22:58.266Z,100905.53
2022-07-31T02:25:27.772Z,100904.50
2022-07-31T02:27:59.205Z,100875.22
2022-07-31T02:30:39.046Z,100893.75
2022-07-31T02:33:13.947Z,100897.47
2022-07-31T02:35:45.435Z,100899.31
2022-07-31T02:38:23.236Z,100851.38
2022-07-31T02:40:57.469Z,100895.81
2022-07-31T02:43:26.755Z,100890.44
2022-07-31T02:45:59.231Z,100889.41
2022-07-31T02:48:28.164Z,100890.81
2022-07-31T02:51:00.416Z,100897.84
2022-07-31T02:53:28.575Z,100888.75
2022-07-31T02:56:02.193Z,100883.19
2022-07-31T02:58:33.115Z,100885.88
2022-07-31T03:01:04.912Z,100879.66
2022-07-31T03:03:33.981Z,100883.00
2022-07-31T03:06:02.363Z,100879.59
2022-07-31T03:08:31.140Z,100901.56
2022-07-31T03:11:04.014Z,100905.28
2022-07-31T03:13:34.944Z,100905.91
2022-07-31T03:16:06.958Z,100897.84
2022-07-31T03:18:35.653Z,100892.63
2022-07-31T03:21:03.810Z,100875.47
2022-07-31T03:23:36.295Z,100883.81
2022-07-31T03:26:09.729Z,100887.34
2022-07-31T03:28:37.714Z,100897.09
2022-07-31T03:31:07.839Z,100895.03
2022-07-31T03:33:36.988Z,100887.59
2022-07-31T03:36:05.493Z,100887.19
2022-07-31T03:38:41.018Z,100883.47
2022-07-31T03:41:10.001Z,100885.97
2022-07-31T03:43:47.020Z,100884.72
2022-07-31T03:46:22.186Z,100892.19
2022-07-31T03:48:52.317Z,100888.00
2022-07-31T03:51:21.349Z,100895.25
2022-07-31T03:53:50.044Z,100896.09
2022-07-31T03:56:45.468Z,100894.03
2022-07-31T03:59:15.895Z,100897.34
2022-07-31T04:01:57.494Z,100897.56
2022-07-31T04:04:46.825Z,100897.09
2022-07-31T04:07:15.580Z,100894.00
2022-07-31T04:09:43.459Z,100897.09
2022-07-31T04:12:13.031Z,100859.94
2022-07-31T04:14:41.257Z,100896.69
2022-07-31T04:17:10.537Z,100897.94
2022-07-31T04:19:39.292Z,100906.44
2022-07-31T04:22:08.756Z,100904.38
2022-07-31T04:24:38.259Z,100899.78
2022-07-31T04:27:13.410Z,100883.38
2022-07-31T04:29:44.308Z,100893.63
2022-07-31T04:32:13.565Z,100891.53
2022-07-31T04:34:54.025Z,100887.59
2022-07-31T04:37:22.079Z,100887.19
2022-07-31T04:39:50.019Z,100888.84
2022-07-31T04:42:18.044Z,100894.22
2022-07-31T04:44:46.173Z,100896.72
2022-07-31T04:47:15.641Z,100887.81
2022-07-31T04:49:47.427Z,100892.19
2022-07-31T04:52:18.791Z,100893.63
2022-07-31T04:54:49.057Z,100895.88
2022-07-31T04:57:21.618Z,100901.28
2022-07-31T05:00:00.118Z,100895.88
2022-07-31T05:02:33.928Z,100902.94
2022-07-31T05:05:02.151Z,100898.38
2022-07-31T05:07:39.942Z,100899.22
2022-07-31T05:10:33.188Z,100896.34
2022-07-31T05:13:01.154Z,100906.25
2022-07-31T05:15:29.313Z,100900.88
2022-07-31T05:17:59.413Z,100894.22
2022-07-31T05:21:05.231Z,100899.03
2022-07-31T05:23:39.761Z,100910.41
2022-07-31T05:26:11.951Z,100914.59
2022-07-31T05:28:40.600Z,100909.00
2022-07-31T05:31:10.129Z,100912.13
2022-07-31T05:33:40.181Z,100907.19
2022-07-31T05:36:08.684Z,100908.03
2022-07-31T05:38:36.959Z,100902.25
2022-07-31T05:41:23.339Z,100893.94
2022-07-31T05:44:09.804Z,100913.28
2022-07-31T05:46:43.535Z,100901.69
2022-07-31T05:49:12.859Z,100908.66
2022-07-31T05:51:44.138Z,100908.03
2022-07-31T05:54:12.042Z,100913.03
2022-07-31T05:56:58.098Z,100800.47
2022-07-31T05:59:34.788Z,100912.84
2022-07-31T06:02:02.943Z,100910.16
2022-07-31T06:04:37.797Z,100912.25
2022-07-31T06:07:05.804Z,100901.47
2022-07-31T06:09:34.187Z,100909.78
2022-07-31T06:12:02.236Z,100900.03
2022-07-31T06:14:30.379Z,100902.56
2022-07-31T06:17:07.044Z,100902.97
2022-07-31T06:19:38.051Z,100905.28
2022-07-31T06:22:06.290Z,100907.31
2022-07-31T06:24:34.556Z,100910.00
2022-07-31T06:27:03.532Z,100910.25
2022-07-31T06:29:41.639Z,100911.91
2022-07-31T06:32:13.020Z,100904.88
2022-07-31T06:34:42.778Z,100909.44
2022-07-31T06:37:11.916Z,100900.09
2022-07-31T06:39:54.590Z,100899.50
2022-07-31T06:42:48.704Z,100888.75
2022-07-31T06:45:50.759Z,100891.22
2022-07-31T06:48:43.247Z,100895.78
2022-07-31T06:51:30.241Z,100884.19
2022-07-31T06:53:59.117Z,100891.44
2022-07-31T06:56:27.716Z,100890.84
2022-07-31T06:58:55.733Z,100893.94
2022-07-31T07:01:23.909Z,100898.69
2022-07-31T07:03:51.941Z,100898.03
2022-07-31T07:06:21.633Z,100899.91
2022-07-31T07:08:50.141Z,100909.00
2022-07-31T07:11:19.736Z,100880.56
2022-07-31T07:13:50.770Z,100908.22
2022-07-31T07:16:20.082Z,100905.72
2022-07-31T07:18:48.280Z,100849.69
2022-07-31T07:21:16.475Z,100875.47
2022-07-31T07:23:46.192Z,100907.44
2022-07-31T07:26:31.448Z,100874.25
2022-07-31T07:29:01.518Z,100896.63
2022-07-31T07:31:31.109Z,100884.78
2022-07-31T07:34:01.770Z,100902.06
2022-07-31T07:36:29.663Z,100902.25
2022-07-31T07:39:02.354Z,100897.91
2022-07-31T07:41:32.312Z,100896.66
2022-07-31T07:44:01.754Z,100891.47
2022-07-31T07:46:30.902Z,100897.50
2022-07-31T07:49:02.126Z,100878.00
2022-07-31T07:51:58.772Z,100890.84
2022-07-31T07:54:40.445Z,100896.22
2022-07-31T07:57:23.909Z,100887.72
2022-07-31T08:00:00.641Z,100885.03
2022-07-31T08:03:46.951Z,100870.72
2022-07-31T08:05:45.631Z,100876.97
2022-07-31T08:08:13.604Z,100878.41
2022-07-31T08:10:51.444Z,100874.28
2022-07-31T08:13:34.925Z,100875.53
2022-07-31T08:16:08.988Z,100863.56
2022-07-31T08:18:43.299Z,100871.25
2022-07-31T08:21:16.348Z,100839.69
2022-07-31T08:23:46.286Z,100878.53
2022-07-31T08:26:17.318Z,100874.16
2022-07-31T08:28:50.531Z,100870.66
2022-07-31T08:31:21.018Z,100861.16
2022-07-31T08:34:31.449Z,100863.59
2022-07-31T08:38:01.304Z,100860.13
2022-07-31T08:39:52.247Z,100848.88
2022-07-31T08:42:21.508Z,100864.47
2022-07-31T08:44:49.332Z,100864.47
2022-07-31T08:47:20.475Z,100864.47
2022-07-31T08:49:50.771Z,100816.53
2022-07-31T08:52:22.300Z,100857.63
2022-07-31T08:55:09.140Z,100860.34
2022-07-31T08:57:40.266Z,100856.59
2022-07-31T09:00:10.911Z,100860.78
2022-07-31T09:02:41.470Z,100866.19
2022-07-31T09:05:42.137Z,100858.69
2022-07-31T09:08:15.142Z,100866.19
2022-07-31T09:10:50.359Z,100860.78
2022-07-31T09:13:20.937Z,100836.72
2022-07-31T09:15:52.650Z,100859.94
2022-07-31T09:18:25.094Z,100856.63
2022-07-31T09:21:06.861Z,100810.56
2022-07-31T09:23:45.460Z,100863.69
2022-07-31T09:26:14.045Z,100842.97
2022-07-31T09:28:45.872Z,100855.81
2022-07-31T09:31:14.898Z,100859.34
2022-07-31T09:34:28.712Z,100853.75
2022-07-31T09:37:14.929Z,100843.78
2022-07-31T09:40:01.101Z,100852.09
2022-07-31T09:42:55.062Z,100852.94
2022-07-31T09:45:26.785Z,100858.72
2022-07-31T09:48:08.218Z,100863.69
2022-07-31T09:50:36.373Z,100861.63
2022-07-31T09:53:06.449Z,100857.88
2022-07-31T09:55:35.021Z,100855.38
2022-07-31T09:58:03.022Z,100853.91
2022-07-31T10:00:40.039Z,100853.09
2022-07-31T10:03:09.016Z,100851.00
2022-07-31T10:05:38.116Z,100859.47
2022-07-31T10:08:07.160Z,100853.03
2022-07-31T10:10:57.077Z,100859.84
2022-07-31T10:13:30.400Z,100826.72
2022-07-31T10:16:01.365Z,100863.81
2022-07-31T10:18:57.116Z,100851.78
2022-07-31T10:21:58.475Z,100861.13
2022-07-31T10:24:33.746Z,100853.44
2022-07-31T10:27:07.610Z,100852.34
2022-07-31T10:29:39.114Z,100841.13
2022-07-31T10:32:09.570Z,100846.53
2022-07-31T10:34:45.387Z,100837.59
2022-07-31T10:37:39.656Z,100835.69
2022-07-31T10:40:26.596Z,100834.38
2022-07-31T10:43:18.796Z,100826.50
2022-07-31T10:45:57.365Z,100816.50
2022-07-31T10:48:54.655Z,100826.59
2022-07-31T10:51:48.419Z,100818.03
2022-07-31T10:54:40.708Z,100826.91
2022-07-31T10:57:32.582Z,100829.84
2022-07-31T11:00:20.954Z,100824.38
2022-07-31T11:03:16.893Z,100822.13
2022-07-31T11:06:04.824Z,100817.91
2022-07-31T11:09:23.012Z,100810.84
2022-07-31T11:11:57.506Z,100819.59
2022-07-31T11:14:42.013Z,100812.75
2022-07-31T11:18:22.428Z,100814.06
2022-07-31T11:20:27.911Z,100813.44
2022-07-31T11:23:03.238Z,100815.09
2022-07-31T11:25:34.102Z,100824.53
2022-07-31T11:28:12.377Z,100820.41
2022-07-31T11:30:51.406Z,100822.53
2022-07-31T11:33:41.729Z,100796.97
2022-07-31T11:36:12.661Z,100816.50
2022-07-31T11:38:43.104Z,100823.22
2022-07-31T11:41:14.225Z,100809.09
2022-07-31T11:43:45.399Z,100807.38
2022-07-31T11:46:13.663Z,100806.16
2022-07-31T11:48:45.426Z,100803.53
2022-07-31T11:51:19.472Z,100803.69
2022-07-31T11:53:56.989Z,100786.31
2022-07-31T11:56:26.991Z,100801.81
2022-07-31T11:58:56.412Z,100804.63
2022-07-31T12:01:27.193Z,100790.59
2022-07-31T12:03:55.822Z,100793.00
2022-07-31T12:06:24.187Z,100792.56
2022-07-31T12:08:57.805Z,100788.41
2022-07-31T12:11:25.792Z,100791.81
2022-07-31T12:13:53.945Z,100784.38
2022-07-31T12:16:22.353Z,100776.88
2022-07-31T12:18:52.856Z,100785.84
2022-07-31T12:21:31.741Z,100772.72
2022-07-31T12:24:03.091Z,100771.22
2022-07-31T12:26:32.843Z,100775.28
2022-07-31T12:29:04.763Z,100770.38
2022-07-31T12:31:45.651Z,100774.13
2022-07-31T12:34:14.118Z,100778.78
2022-07-31T12:36:42.679Z,100770.09
2022-07-31T12:39:12.851Z,100769.78
2022-07-31T12:41:44.230Z,100772.81
2022-07-31T12:44:14.408Z,100762.88
2022-07-31T12:46:43.071Z,100770.03
2022-07-31T12:49:11.271Z,100758.22
2022-07-31T12:51:45.155Z,100753.81
2022-07-31T12:54:17.395Z,100754.16
2022-07-31T12:56:46.411Z,100753.31
2022-07-31T12:59:14.701Z,100751.50
2022-07-31T13:01:42.869Z,100748.19
2022-07-31T13:04:18.530Z,100749.63
2022-07-31T13:06:51.281Z,100749.25
2022-07-31T13:09:21.057Z,100739.75
2022-07-31T13:11:52.118Z,100744.72
2022-07-31T13:14:23.426Z,100737.97
2022-07-31T13:16:52.555Z,100730.03
2022-07-31T13:19:21.004Z,100730.44
2022-07-31T13:21:50.247Z,100738.75
2022-07-31T13:24:21.187Z,100725.38
2022-07-31T13:26:49.631Z,100718.91
2022-07-31T13:29:18.042Z,100711.19
2022-07-31T13:31:46.139Z,100720.19
2022-07-31T13:34:14.431Z,100704.28
2022-07-31T13:36:42.288Z,100722.50
2022-07-31T13:39:10.750Z,100713.06
2022-07-31T13:41:40.535Z,100710.56
2022-07-31T13:44:09.507Z,100698.22
2022-07-31T13:46:38.196Z,100708.34
2022-07-31T13:49:08.994Z,100698.78
2022-07-31T13:51:37.816Z,100703.75
2022-07-31T13:54:05.922Z,100707.75
2022-07-31T13:56:41.816Z,100700.22
2022-07-31T13:59:13.286Z,100700.06
2022-07-31T14:02:04.241Z,100698.53
2022-07-31T14:04:32.099Z,100706.00
2022-07-31T14:07:04.036Z,100709.59
2022-07-31T14:09:34.185Z,100686.75
2022-07-31T14:12:03.860Z,100712.13
2022-07-31T14:14:34.230Z,100693.88
2022-07-31T14:17:02.044Z,100691.59
2022-07-31T14:19:30.001Z,100685.22
2022-07-31T14:21:58.030Z,100687.63
2022-07-31T14:24:26.834Z,100685.81
2022-07-31T14:26:54.687Z,100686.13
2022-07-31T14:29:22.493Z,100691.91
2022-07-31T14:31:51.722Z,100693.72
2022-07-31T14:34:19.477Z,100694.34
2022-07-31T14:36:47.312Z,100686.50
2022-07-31T14:39:15.102Z,100679.44
2022-07-31T14:41:43.138Z,100677.56
2022-07-31T14:44:10.923Z,100693.94
2022-07-31T14:46:38.755Z,100676.03
2022-07-31T14:49:08.667Z,100688.78
2022-07-31T14:51:36.490Z,100678.34
2022-07-31T14:54:04.399Z,100674.94
2022-07-31T14:56:59.709Z,100680.25
2022-07-31T14:59:20.248Z,100673.41
2022-07-31T15:01:48.236Z,100680.00
2022-07-31T15:04:17.506Z,100682.13
2022-07-31T15:06:56.057Z,100680.59
2022-07-31T15:09:31.489Z,100678.59
2022-07-31T15:12:01.853Z,100678.97
2022-07-31T15:14:30.327Z,100690.19
2022-07-31T15:16:58.164Z,100674.25
2022-07-31T15:19:27.507Z,100672.38
2022-07-31T15:22:10.707Z,100669.22
2022-07-31T15:24:49.195Z,100660.63
2022-07-31T15:27:18.448Z,100676.19
2022-07-31T15:30:00.593Z,100662.19
2022-07-31T15:32:35.368Z,100665.13
2022-07-31T15:35:05.475Z,100656.53
2022-07-31T15:37:35.685Z,100663.69
2022-07-31T15:40:07.110Z,100664.75
2022-07-31T15:42:38.300Z,100660.63
2022-07-31T15:45:07.899Z,100657.09
2022-07-31T15:47:35.835Z,100651.19
2022-07-31T15:50:05.350Z,100639.03
2022-07-31T15:52:33.779Z,100652.22
2022-07-31T15:55:01.576Z,100642.09
2022-07-31T15:57:29.430Z,100640.81
2022-07-31T15:59:57.299Z,100646.34
2022-07-31T16:02:25.999Z,100636.47
2022-07-31T16:04:56.564Z,100639.03
2022-07-31T16:08:31.718Z,100639.63
2022-07-31T16:10:18.416Z,100637.06
2022-07-31T16:12:46.847Z,100638.34
2022-07-31T16:15:15.147Z,100642.84
2022-07-31T16:17:44.416Z,100630.34
2022-07-31T16:20:25.410Z,100641.78
2022-07-31T16:22:58.054Z,100637.16
2022-07-31T16:25:27.032Z,100625.63
2022-07-31T16:27:55.686Z,100612.41
2022-07-31T16:30:26.157Z,100623.59
2022-07-31T16:32:54.297Z,100624.06
2022-07-31T16:35:22.539Z,100627.00
2022-07-31T16:37:53.307Z,100617.72
2022-07-31T16:40:28.810Z,100628.50
2022-07-31T16:43:01.818Z,100619.41
2022-07-31T16:45:30.832Z,100616.94
2022-07-31T16:47:59.188Z,100625.75
2022-07-31T16:50:27.319Z,100623.38
2022-07-31T16:52:55.548Z,100619.25
2022-07-31T16:55:46.221Z,100620.72
2022-07-31T16:58:16.663Z,100622.00
2022-07-31T17:00:44.505Z,100617.03
2022-07-31T17:04:01.258Z,100610.59
2022-07-31T17:06:00.166Z,100618.69
2022-07-31T17:08:28.833Z,100614.13
2022-07-31T17:10:58.135Z,100615.16
2022-07-31T17:13:26.100Z,100615.75
2022-07-31T17:15:54.133Z,100606.94
2022-07-31T17:18:25.014Z,100608.88
2022-07-31T17:20:55.703Z,100605.56
2022-07-31T17:23:43.568Z,100610.53
2022-07-31T17:26:21.182Z,100599.72
2022-07-31T17:28:50.804Z,100603.16
2022-07-31T17:31:19.054Z,100602.78
2022-07-31T17:33:58.414Z,100591.00
2022-07-31T17:36:29.158Z,100610.25
2022-07-31T17:38:57.131Z,100619.19
2022-07-31T17:41:26.369Z,100625.38
2022-07-31T17:43:54.872Z,100624.22
2022-07-31T17:46:34.397Z,100621.97
2022-07-31T17:49:05.886Z,100612.03
2022-07-31T17:51:34.126Z,100617.91
2022-07-31T17:54:01.955Z,100624.38
2022-07-31T17:56:31.369Z,100631.88
2022-07-31T17:59:04.498Z,100639.84
2022-07-31T18:01:33.751Z,100624.97
2022-07-31T18:04:02.013Z,100624.16
2022-07-31T18:06:29.905Z,100625.44
2022-07-31T18:08:57.852Z,100616.09
2022-07-31T18:11:27.720Z,100634.66
2022-07-31T18:14:03.096Z,100630.56
2022-07-31T18:16:34.120Z,100631.44
2022-07-31T18:19:02.043Z,100636.84
2022-07-31T18:21:31.366Z,100635.19
2022-07-31T18:24:04.811Z,100639.56
2022-07-31T18:26:35.185Z,100633.59
2022-07-31T18:29:04.711Z,100642.41
2022-07-31T18:31:35.178Z,100649.81
2022-07-31T18:34:04.052Z,100653.22
2022-07-31T18:36:32.922Z,100661.53
2022-07-31T18:39:00.847Z,100653.66
2022-07-31T18:41:28.892Z,100657.78
2022-07-31T18:43:57.160Z,100657.84
2022-07-31T18:46:26.409Z,100659.94
2022-07-31T18:48:55.749Z,100646.28
2022-07-31T18:51:24.431Z,100660.22
2022-07-31T18:53:54.570Z,100660.03
2022-07-31T18:56:23.812Z,100650.13
2022-07-31T18:58:51.799Z,100651.41
2022-07-31T19:01:19.943Z,100653.88
2022-07-31T19:03:50.076Z,100662.34
2022-07-31T19:06:18.055Z,100654.31
2022-07-31T19:08:46.065Z,100666.00
2022-07-31T19:11:13.920Z,100663.38
2022-07-31T19:13:43.872Z,100676.88
2022-07-31T19:16:11.820Z,100667.50
2022-07-31T19:18:42.848Z,100676.06
2022-07-31T19:21:23.086Z,100664.47
2022-07-31T19:24:01.430Z,100679.22
2022-07-31T19:26:29.315Z,100679.47
2022-07-31T19:28:57.332Z,100675.47
2022-07-31T19:31:25.116Z,100671.81
2022-07-31T19:33:52.951Z,100685.31
2022-07-31T19:36:22.274Z,100683.66
2022-07-31T19:38:50.522Z,100680.13
2022-07-31T19:41:20.893Z,100682.00
2022-07-31T19:43:49.917Z,100689.06
2022-07-31T19:46:18.067Z,100695.31
2022-07-31T19:48:48.701Z,100706.13
2022-07-31T19:51:18.841Z,100709.09
2022-07-31T19:53:50.693Z,100710.34
2022-07-31T19:56:20.956Z,100715.78
2022-07-31T19:58:55.078Z,100717.47
2022-07-31T20:01:23.259Z,100715.19
2022-07-31T20:03:52.956Z,100722.53
2022-07-31T20:06:20.863Z,100708.84
2022-07-31T20:08:50.079Z,100711.59
2022-07-31T20:11:18.188Z,100730.22
2022-07-31T20:13:46.107Z,100720.94
2022-07-31T20:16:15.104Z,100717.59
2022-07-31T20:18:42.991Z,100719.06
2022-07-31T20:21:11.796Z,100726.53
2022-07-31T20:23:41.551Z,100724.28
2022-07-31T20:26:12.493Z,100741.06
2022-07-31T20:28:41.228Z,100745.25
2022-07-31T20:31:16.127Z,100742.97
2022-07-31T20:33:56.735Z,100740.94
2022-07-31T20:36:26.643Z,100735.16
2022-07-31T20:38:54.454Z,100737.00
2022-07-31T20:41:23.687Z,100732.28
2022-07-31T20:43:51.504Z,100739.34
2022-07-31T20:46:19.436Z,100740.16
2022-07-31T20:48:49.863Z,100740.59
2022-07-31T20:51:21.879Z,100745.56
2022-07-31T20:53:50.035Z,100737.88
2022-07-31T20:56:17.988Z,100747.63
2022-07-31T20:58:51.376Z,100746.78
2022-07-31T21:01:21.014Z,100742.66
2022-07-31T21:03:49.691Z,100748.06
2022-07-31T21:06:17.566Z,100743.50
2022-07-31T21:08:45.394Z,100743.66
2022-07-31T21:11:13.379Z,100750.53
2022-07-31T21:13:42.017Z,100742.84
2022-07-31T21:16:11.257Z,100751.75
2022-07-31T21:18:43.275Z,100749.06
2022-07-31T21:21:11.625Z,100748.44
2022-07-31T21:23:39.467Z,100747.59
2022-07-31T21:26:08.612Z,100755.69
2022-07-31T21:28:37.361Z,100752.78
2022-07-31T21:31:06.121Z,100757.94
2022-07-31T21:33:36.078Z,100758.78
2022-07-31T21:36:05.854Z,100759.19
2022-07-31T21:38:35.861Z,100763.72
2022-07-31T21:41:04.117Z,100760.00
2022-07-31T21:43:41.809Z,100766.63
2022-07-31T21:46:22.965Z,100762.50
2022-07-31T21:48:53.015Z,100765.19
2022-07-31T21:51:21.396Z,100761.44
2022-07-31T21:53:49.221Z,100758.16
2022-07-31T21:56:17.927Z,100766.22
2022-07-31T21:58:45.775Z,100769.34
2022-07-31T22:01:15.229Z,100766.63
2022-07-31T22:03:43.410Z,100771.59
2022-07-31T22:06:35.584Z,100770.13
2022-07-31T22:09:05.591Z,100767.44
2022-07-31T22:11:33.751Z,100767.03
2022-07-31T22:14:01.593Z,100770.38
2022-07-31T22:16:29.414Z,100769.72
2022-07-31T22:18:58.122Z,100770.97
2022-07-31T22:21:27.909Z,100776.78
2022-07-31T22:23:56.118Z,100774.50
2022-07-31T22:26:24.687Z,100770.53
2022-07-31T22:28:55.291Z,100769.09
2022-07-31T22:31:23.760Z,100769.94
2022-07-31T22:33:52.019Z,100776.75
2022-07-31T22:36:21.147Z,100781.09
2022-07-31T22:38:50.816Z,100781.09
2022-07-31T22:41:18.705Z,100775.09
2022-07-31T22:44:12.869Z,100778.22
2022-07-31T22:46:39.686Z,100781.09
2022-07-31T22:49:09.791Z,100777.59
2022-07-31T22:51:38.738Z,100772.00
2022-07-31T22:54:08.930Z,100778.63
2022-07-31T22:56:36.792Z,100774.50
2022-07-31T22:59:04.800Z,100778.22
2022-07-31T23:01:32.662Z,100779.66
2022-07-31T23:04:00.452Z,100774.88
2022-07-31T23:06:30.749Z,100781.31
2022-07-31T23:08:59.812Z,100782.13
2022-07-31T23:11:31.084Z,100776.94
2022-07-31T23:13:58.924Z,100785.25
2022-07-31T23:16:27.735Z,100782.34
2022-07-31T23:18:55.945Z,100787.53
2022-07-31T23:21:23.872Z,100790.84
2022-07-31T23:23:52.175Z,100781.50
2022-07-31T23:26:20.135Z,100796.03
2022-07-31T23:28:49.696Z,100793.53
2022-07-31T23:31:18.058Z,100792.72
2022-07-31T23:33:47.173Z,100798.91
2022-07-31T23:36:15.906Z,100797.25
2022-07-31T23:38:44.307Z,100791.25
2022-07-31T23:41:13.207Z,100794.56
2022-07-31T23:43:40.499Z,100793.94
2022-07-31T23:46:09.670Z,100792.28
2022-07-31T23:48:39.383Z,100791.66
2022-07-31T23:51:10.160Z,100785.22
2022-07-31T23:53:37.971Z,100791.66
2022-07-31T23:56:06.252Z,100791.00
2022-07-31T23:58:47.031Z,100789.75
